createdAt,value
2023-11-05T08:17:04.592Z,92.63
2023-11-05T08:32:05.496Z,91.36
2023-11-05T08:47:05.346Z,92.49
2023-11-05T09:02:05.115Z,93.96
2023-11-05T09:17:04.970Z,95.34
2023-11-05T09:32:04.862Z,96.28
2023-11-05T09:47:06.251Z,95.10
2023-11-05T10:02:04.468Z,94.70
2023-11-05T10:17:04.311Z,95.92
2023-11-05T10:32:04.144Z,96.29
2023-11-05T10:47:04.054Z,95.59
2023-11-05T11:02:03.889Z,95.34
2023-11-05T11:17:03.780Z,93.05
2023-11-05T11:32:03.624Z,92.14
2023-11-05T11:47:03.376Z,91.85
2023-11-05T12:02:03.267Z,91.08
2023-11-05T12:17:03.122Z,88.39
2023-11-05T12:32:02.906Z,88.49
2023-11-05T12:47:03.084Z,85.49
2023-11-05T13:02:04.978Z,84.98
2023-11-05T13:17:02.496Z,86.47
2023-11-05T13:32:02.331Z,85.47
2023-11-05T13:47:02.198Z,84.97
2023-11-05T14:02:02.047Z,83.89
2023-11-05T14:17:01.901Z,83.72
2023-11-05T14:32:01.706Z,85.14
2023-11-05T14:47:01.579Z,83.21
2023-11-05T15:02:01.366Z,86.35
2023-11-05T15:17:01.214Z,88.73
2023-11-05T15:32:01.093Z,89.69
2023-11-05T15:47:00.895Z,89.73
2023-11-05T16:02:00.750Z,91.11
2023-11-05T16:17:00.609Z,91.15
2023-11-05T16:32:00.446Z,92.58
2023-11-05T16:47:00.280Z,92.88
2023-11-05T17:02:00.108Z,92.78
2023-11-05T17:17:00.197Z,91.76
2023-11-05T17:31:59.805Z,91.46
2023-11-05T17:46:59.754Z,91.56
2023-11-05T18:01:59.521Z,91.46
2023-11-05T18:16:59.352Z,92.54
2023-11-05T18:31:59.239Z,96.61
2023-11-05T18:46:59.043Z,99.47
2023-11-05T19:01:58.849Z,99.99
2023-11-05T19:16:58.684Z,99.99
2023-11-05T19:31:58.562Z,99.99
2023-11-05T19:46:58.355Z,99.99
2023-11-05T20:01:59.837Z,99.99
2023-11-05T20:16:58.013Z,99.99
2023-11-05T20:31:57.895Z,99.99
2023-11-05T20:46:58.477Z,99.99
2023-11-05T21:01:57.618Z,99.99
2023-11-05T21:16:57.463Z,99.99
2023-11-05T21:31:57.273Z,99.99
2023-11-05T21:46:57.102Z,99.99
2023-11-05T22:01:56.927Z,99.99
2023-11-05T22:16:56.807Z,99.61
2023-11-05T22:31:56.641Z,98.28
2023-11-05T22:46:56.545Z,98.38
2023-11-05T23:01:57.929Z,96.91
2023-11-05T23:16:56.251Z,95.41
2023-11-05T23:31:56.040Z,93.84
2023-11-05T23:46:55.897Z,93.12
